LGKV/KVA METAR and TAF weather

Enter ICAO airport designator
Station Type Date Time Source
LGKV METAR 2022/06/27 17:20 UTC NOAA

LGKV 271720Z 24005KT 9999 FEW025 24/17 Q1014


Station Type Date Time Source
LGKV Decoded METAR 2022/06/27 17:20 UTC NOAA

Chrysoupoli Airport , Greece (LGKV) 40-59N 024-36E 5M
Jun 27, 2022 - 01:20 PM EDT / 2022.06.27 1720 UTC
Wind: from the WSW (240 degrees) at 6 MPH (5 KT):0
Visibility: greater than 7 mile(s):0
Sky conditions: mostly clear
Temperature: 75 F (24 C)
Dew Point: 62 F (17 C)
Relative Humidity: 64%
Pressure (altimeter): 29.94 in. Hg (1014 hPa)
ob: LGKV 271720Z 24005KT 9999 FEW025 24/17 Q1014
cycle: 17

Station Type Date Time Source
LGKV TAF 2022/06/27 18:16 UTC NOAA

TAF LGKV 271700Z 2718/2818 VRB03KT 9999 FEW030
BECMG 2808/2810 FEW025 SCT080 PROB40
TEMPO 2811/2818 6000 SHRA FEW020TCU SCT025 BKN080 PROB30
TEMPO 2812/2818 4000 TSRA FEW018CB SCT020 BKN070

Example: see airport list